sensor_id;sensor_type;location;lat;lon;timestamp;temperature;humidity
62464;SHT31;48512;48.552;9.380;2022-08-18T00:01:41;20.21;84.42
62464;SHT31;48512;48.552;9.380;2022-08-18T00:04:09;20.16;83.65
62464;SHT31;48512;48.552;9.380;2022-08-18T00:06:34;20.03;84.12
62464;SHT31;48512;48.552;9.380;2022-08-18T00:09:04;20.00;84.43
62464;SHT31;48512;48.552;9.380;2022-08-18T00:11:31;19.97;84.33
62464;SHT31;48512;48.552;9.380;2022-08-18T00:13:57;19.93;84.18
62464;SHT31;48512;48.552;9.380;2022-08-18T00:16:23;19.87;84.68
62464;SHT31;48512;48.552;9.380;2022-08-18T00:18:48;19.93;84.66
62464;SHT31;48512;48.552;9.380;2022-08-18T00:21:14;19.80;85.12
62464;SHT31;48512;48.552;9.380;2022-08-18T00:23:39;19.79;85.44
62464;SHT31;48512;48.552;9.380;2022-08-18T00:26:05;19.79;85.47
62464;SHT31;48512;48.552;9.380;2022-08-18T00:28:30;19.75;85.75
62464;SHT31;48512;48.552;9.380;2022-08-18T00:30:55;19.72;86.03
62464;SHT31;48512;48.552;9.380;2022-08-18T00:33:21;19.65;86.73
62464;SHT31;48512;48.552;9.380;2022-08-18T00:35:47;19.59;86.53
62464;SHT31;48512;48.552;9.380;2022-08-18T00:38:12;19.57;86.50
62464;SHT31;48512;48.552;9.380;2022-08-18T00:40:44;19.50;86.54
62464;SHT31;48512;48.552;9.380;2022-08-18T00:43:17;19.47;86.36
62464;SHT31;48512;48.552;9.380;2022-08-18T00:45:45;19.28;85.85
62464;SHT31;48512;48.552;9.380;2022-08-18T00:48:12;19.31;84.69
62464;SHT31;48512;48.552;9.380;2022-08-18T00:50:41;19.20;84.82
62464;SHT31;48512;48.552;9.380;2022-08-18T00:53:12;19.10;84.66
62464;SHT31;48512;48.552;9.380;2022-08-18T00:55:40;19.14;84.58
62464;SHT31;48512;48.552;9.380;2022-08-18T00:58:11;19.10;85.04
62464;SHT31;48512;48.552;9.380;2022-08-18T01:00:40;19.03;85.51
62464;SHT31;48512;48.552;9.380;2022-08-18T01:03:08;19.03;85.07
62464;SHT31;48512;48.552;9.380;2022-08-18T01:05:44;19.17;85.19
62464;SHT31;48512;48.552;9.380;2022-08-18T01:08:13;19.59;82.75
62464;SHT31;48512;48.552;9.380;2022-08-18T01:10:41;19.48;83.56
62464;SHT31;48512;48.552;9.380;2022-08-18T01:13:07;19.45;83.74
62464;SHT31;48512;48.552;9.380;2022-08-18T01:15:33;19.48;84.13
62464;SHT31;48512;48.552;9.380;2022-08-18T01:18:03;19.51;84.64
62464;SHT31;48512;48.552;9.380;2022-08-18T01:20:59;19.55;84.48
62464;SHT31;48512;48.552;9.380;2022-08-18T01:23:47;19.58;84.43
62464;SHT31;48512;48.552;9.380;2022-08-18T01:26:14;19.55;85.51
62464;SHT31;48512;48.552;9.380;2022-08-18T01:28:42;19.57;85.02
62464;SHT31;48512;48.552;9.380;2022-08-18T01:31:10;19.54;85.24
62464;SHT31;48512;48.552;9.380;2022-08-18T01:33:42;19.55;84.94
62464;SHT31;48512;48.552;9.380;2022-08-18T01:38:33;19.66;84.64
62464;SHT31;48512;48.552;9.380;2022-08-18T01:40:58;19.62;85.07
62464;SHT31;48512;48.552;9.380;2022-08-18T01:43:24;19.58;84.93
62464;SHT31;48512;48.552;9.380;2022-08-18T01:45:50;19.51;85.45
62464;SHT31;48512;48.552;9.380;2022-08-18T01:48:16;19.50;85.68
62464;SHT31;48512;48.552;9.380;2022-08-18T01:50:41;19.51;85.57
62464;SHT31;48512;48.552;9.380;2022-08-18T01:53:09;19.58;85.31
62464;SHT31;48512;48.552;9.380;2022-08-18T01:55:37;19.47;85.80
62464;SHT31;48512;48.552;9.380;2022-08-18T01:58:03;19.36;85.83
62464;SHT31;48512;48.552;9.380;2022-08-18T02:00:29;19.17;86.04
62464;SHT31;48512;48.552;9.380;2022-08-18T02:02:55;19.00;86.77
62464;SHT31;48512;48.552;9.380;2022-08-18T02:05:29;18.92;87.29
62464;SHT31;48512;48.552;9.380;2022-08-18T02:07:56;18.97;87.30
62464;SHT31;48512;48.552;9.380;2022-08-18T02:10:21;19.03;87.46
62464;SHT31;48512;48.552;9.380;2022-08-18T02:12:46;19.00;87.78
62464;SHT31;48512;48.552;9.380;2022-08-18T02:15:12;19.08;87.27
62464;SHT31;48512;48.552;9.380;2022-08-18T02:17:39;19.14;87.28
62464;SHT31;48512;48.552;9.380;2022-08-18T02:20:05;19.08;87.68
62464;SHT31;48512;48.552;9.380;2022-08-18T02:22:32;19.10;87.44
62464;SHT31;48512;48.552;9.380;2022-08-18T02:24:57;19.24;86.80
62464;SHT31;48512;48.552;9.380;2022-08-18T02:27:23;19.08;87.48
62464;SHT31;48512;48.552;9.380;2022-08-18T02:29:48;19.03;88.00
62464;SHT31;48512;48.552;9.380;2022-08-18T02:32:13;18.94;88.38
62464;SHT31;48512;48.552;9.380;2022-08-18T02:34:39;18.83;88.88
62464;SHT31;48512;48.552;9.380;2022-08-18T02:37:07;18.80;89.08
62464;SHT31;48512;48.552;9.380;2022-08-18T02:39:34;18.76;89.08
62464;SHT31;48512;48.552;9.380;2022-08-18T02:42:05;18.77;89.23
62464;SHT31;48512;48.552;9.380;2022-08-18T02:44:31;18.79;88.92
62464;SHT31;48512;48.552;9.380;2022-08-18T02:46:57;18.83;88.76
62464;SHT31;48512;48.552;9.380;2022-08-18T02:49:22;18.87;88.74
62464;SHT31;48512;48.552;9.380;2022-08-18T02:51:50;18.94;88.78
62464;SHT31;48512;48.552;9.380;2022-08-18T02:54:17;18.92;88.85
62464;SHT31;48512;48.552;9.380;2022-08-18T02:56:43;19.04;88.51
62464;SHT31;48512;48.552;9.380;2022-08-18T02:59:15;19.11;88.17
62464;SHT31;48512;48.552;9.380;2022-08-18T03:01:44;19.18;87.83
62464;SHT31;48512;48.552;9.380;2022-08-18T03:04:12;19.24;87.70
62464;SHT31;48512;48.552;9.380;2022-08-18T03:06:39;19.41;87.24
62464;SHT31;48512;48.552;9.380;2022-08-18T03:09:07;19.30;87.43
62464;SHT31;48512;48.552;9.380;2022-08-18T03:11:33;19.24;87.71
62464;SHT31;48512;48.552;9.380;2022-08-18T03:13:59;19.25;87.63
62464;SHT31;48512;48.552;9.380;2022-08-18T03:16:25;19.20;87.77
62464;SHT31;48512;48.552;9.380;2022-08-18T03:18:51;19.27;87.18
62464;SHT31;48512;48.552;9.380;2022-08-18T03:21:26;19.21;87.19
62464;SHT31;48512;48.552;9.380;2022-08-18T03:23:53;19.17;87.13
62464;SHT31;48512;48.552;9.380;2022-08-18T03:26:20;19.17;86.94
62464;SHT31;48512;48.552;9.380;2022-08-18T03:28:49;19.17;86.72
62464;SHT31;48512;48.552;9.380;2022-08-18T03:31:16;19.18;86.74
62464;SHT31;48512;48.552;9.380;2022-08-18T03:33:43;19.06;87.46
62464;SHT31;48512;48.552;9.380;2022-08-18T03:36:15;19.03;87.55
62464;SHT31;48512;48.552;9.380;2022-08-18T03:38:42;19.02;87.60
62464;SHT31;48512;48.552;9.380;2022-08-18T03:41:10;19.00;87.77
62464;SHT31;48512;48.552;9.380;2022-08-18T03:43:36;19.03;87.29
62464;SHT31;48512;48.552;9.380;2022-08-18T03:46:05;18.93;87.62
62464;SHT31;48512;48.552;9.380;2022-08-18T03:48:31;18.92;87.91
62464;SHT31;48512;48.552;9.380;2022-08-18T03:51:04;18.85;88.73
62464;SHT31;48512;48.552;9.380;2022-08-18T03:53:31;18.85;88.75
62464;SHT31;48512;48.552;9.380;2022-08-18T03:55:57;18.89;88.71
62464;SHT31;48512;48.552;9.380;2022-08-18T03:58:22;18.92;88.42
62464;SHT31;48512;48.552;9.380;2022-08-18T04:00:48;18.80;88.28
62464;SHT31;48512;48.552;9.380;2022-08-18T04:03:14;18.62;88.28
62464;SHT31;48512;48.552;9.380;2022-08-18T04:05:39;18.60;87.45
62464;SHT31;48512;48.552;9.380;2022-08-18T04:08:05;18.49;88.01
62464;SHT31;48512;48.552;9.380;2022-08-18T04:10:31;18.39;88.27
62464;SHT31;48512;48.552;9.380;2022-08-18T04:12:57;18.41;88.46
62464;SHT31;48512;48.552;9.380;2022-08-18T04:15:23;18.37;88.35
62464;SHT31;48512;48.552;9.380;2022-08-18T04:17:49;18.37;88.58
62464;SHT31;48512;48.552;9.380;2022-08-18T04:20:14;18.44;88.70
62464;SHT31;48512;48.552;9.380;2022-08-18T04:22:41;18.52;88.45
62464;SHT31;48512;48.552;9.380;2022-08-18T04:25:07;18.56;88.37
62464;SHT31;48512;48.552;9.380;2022-08-18T04:27:36;18.67;88.26
62464;SHT31;48512;48.552;9.380;2022-08-18T04:30:04;18.73;88.03
62464;SHT31;48512;48.552;9.380;2022-08-18T04:32:29;18.77;87.97
62464;SHT31;48512;48.552;9.380;2022-08-18T04:34:55;18.82;87.42
62464;SHT31;48512;48.552;9.380;2022-08-18T04:37:21;18.92;87.24
62464;SHT31;48512;48.552;9.380;2022-08-18T04:39:46;18.87;87.35
62464;SHT31;48512;48.552;9.380;2022-08-18T04:42:12;18.94;87.19
62464;SHT31;48512;48.552;9.380;2022-08-18T04:44:38;18.96;87.07
62464;SHT31;48512;48.552;9.380;2022-08-18T04:47:04;18.86;87.75
62464;SHT31;48512;48.552;9.380;2022-08-18T04:49:30;18.90;87.45
62464;SHT31;48512;48.552;9.380;2022-08-18T04:51:56;18.87;87.57
62464;SHT31;48512;48.552;9.380;2022-08-18T04:54:40;18.94;87.33
62464;SHT31;48512;48.552;9.380;2022-08-18T04:59:33;18.79;87.71
62464;SHT31;48512;48.552;9.380;2022-08-18T05:02:00;18.79;87.41
62464;SHT31;48512;48.552;9.380;2022-08-18T05:04:29;18.80;87.30
62464;SHT31;48512;48.552;9.380;2022-08-18T05:06:56;18.87;87.28
62464;SHT31;48512;48.552;9.380;2022-08-18T05:09:21;18.97;86.93
62464;SHT31;48512;48.552;9.380;2022-08-18T05:11:46;18.96;87.09
62464;SHT31;48512;48.552;9.380;2022-08-18T05:14:13;19.10;86.41
62464;SHT31;48512;48.552;9.380;2022-08-18T05:16:38;19.07;86.60
62464;SHT31;48512;48.552;9.380;2022-08-18T05:19:06;19.11;86.58
62464;SHT31;48512;48.552;9.380;2022-08-18T05:21:33;19.14;86.37
62464;SHT31;48512;48.552;9.380;2022-08-18T05:24:01;19.13;86.72
62464;SHT31;48512;48.552;9.380;2022-08-18T05:26:26;19.03;87.03
62464;SHT31;48512;48.552;9.380;2022-08-18T05:28:52;18.96;87.09
62464;SHT31;48512;48.552;9.380;2022-08-18T05:31:19;18.94;86.58
62464;SHT31;48512;48.552;9.380;2022-08-18T05:33:46;19.03;87.06
62464;SHT31;48512;48.552;9.380;2022-08-18T05:36:31;19.04;87.95
62464;SHT31;48512;48.552;9.380;2022-08-18T05:39:39;19.17;87.12
62464;SHT31;48512;48.552;9.380;2022-08-18T05:42:18;19.10;87.33
62464;SHT31;48512;48.552;9.380;2022-08-18T05:44:47;19.08;87.14
62464;SHT31;48512;48.552;9.380;2022-08-18T05:49:47;19.11;87.28
62464;SHT31;48512;48.552;9.380;2022-08-18T05:52:20;19.21;87.28
62464;SHT31;48512;48.552;9.380;2022-08-18T05:54:54;19.23;87.46
62464;SHT31;48512;48.552;9.380;2022-08-18T05:57:47;19.24;87.64
62464;SHT31;48512;48.552;9.380;2022-08-18T06:00:18;19.20;87.72
62464;SHT31;48512;48.552;9.380;2022-08-18T06:02:57;19.28;87.72
62464;SHT31;48512;48.552;9.380;2022-08-18T06:05:35;19.35;87.77
62464;SHT31;48512;48.552;9.380;2022-08-18T06:08:11;19.36;87.37
62464;SHT31;48512;48.552;9.380;2022-08-18T06:10:38;19.41;87.65
62464;SHT31;48512;48.552;9.380;2022-08-18T06:13:08;19.51;85.83
62464;SHT31;48512;48.552;9.380;2022-08-18T06:15:45;19.61;84.53
62464;SHT31;48512;48.552;9.380;2022-08-18T06:18:46;19.73;83.55
62464;SHT31;48512;48.552;9.380;2022-08-18T06:21:42;19.73;82.58
62464;SHT31;48512;48.552;9.380;2022-08-18T06:40:48;19.97;82.96
62464;SHT31;48512;48.552;9.380;2022-08-18T06:43:15;20.03;82.98
62464;SHT31;48512;48.552;9.380;2022-08-18T06:45:44;20.07;82.73
62464;SHT31;48512;48.552;9.380;2022-08-18T06:48:18;20.16;81.77
62464;SHT31;48512;48.552;9.380;2022-08-18T06:50:59;20.10;82.69
62464;SHT31;48512;48.552;9.380;2022-08-18T07:01:39;20.49;81.66
62464;SHT31;48512;48.552;9.380;2022-08-18T07:04:04;20.65;80.58
62464;SHT31;48512;48.552;9.380;2022-08-18T07:06:30;20.71;80.44
62464;SHT31;48512;48.552;9.380;2022-08-18T07:09:16;20.55;80.56
62464;SHT31;48512;48.552;9.380;2022-08-18T07:11:57;20.49;81.01
62464;SHT31;48512;48.552;9.380;2022-08-18T07:14:23;20.51;79.82
62464;SHT31;48512;48.552;9.380;2022-08-18T07:16:50;20.54;79.65
62464;SHT31;48512;48.552;9.380;2022-08-18T07:19:31;20.61;80.15
62464;SHT31;48512;48.552;9.380;2022-08-18T07:22:12;20.58;79.81
62464;SHT31;48512;48.552;9.380;2022-08-18T07:24:44;20.69;79.39
62464;SHT31;48512;48.552;9.380;2022-08-18T07:27:15;20.71;80.42
62464;SHT31;48512;48.552;9.380;2022-08-18T07:30:02;20.63;81.11
62464;SHT31;48512;48.552;9.380;2022-08-18T07:32:35;20.49;81.15
62464;SHT31;48512;48.552;9.380;2022-08-18T07:35:06;20.49;81.71
62464;SHT31;48512;48.552;9.380;2022-08-18T07:42:48;20.44;79.11
62464;SHT31;48512;48.552;9.380;2022-08-18T07:45:24;20.31;80.35
62464;SHT31;48512;48.552;9.380;2022-08-18T07:50:26;20.24;80.26
62464;SHT31;48512;48.552;9.380;2022-08-18T07:55:50;20.23;80.76
62464;SHT31;48512;48.552;9.380;2022-08-18T07:58:40;20.24;82.48
62464;SHT31;48512;48.552;9.380;2022-08-18T08:04:05;20.40;81.35
62464;SHT31;48512;48.552;9.380;2022-08-18T08:06:51;20.51;80.84
62464;SHT31;48512;48.552;9.380;2022-08-18T08:09:45;20.43;81.82
62464;SHT31;48512;48.552;9.380;2022-08-18T08:12:40;20.49;82.10
62464;SHT31;48512;48.552;9.380;2022-08-18T08:18:21;20.98;81.10
62464;SHT31;48512;48.552;9.380;2022-08-18T08:21:04;21.16;80.25
62464;SHT31;48512;48.552;9.380;2022-08-18T08:23:51;21.33;79.06
62464;SHT31;48512;48.552;9.380;2022-08-18T08:26:27;21.49;77.81
62464;SHT31;48512;48.552;9.380;2022-08-18T08:31:48;21.67;76.20
62464;SHT31;48512;48.552;9.380;2022-08-18T08:34:30;21.73;76.65
62464;SHT31;48512;48.552;9.380;2022-08-18T08:37:04;21.87;75.22
62464;SHT31;48512;48.552;9.380;2022-08-18T08:39:47;22.10;76.99
62464;SHT31;48512;48.552;9.380;2022-08-18T08:44:57;22.12;77.26
62464;SHT31;48512;48.552;9.380;2022-08-18T08:47:41;22.20;75.42
62464;SHT31;48512;48.552;9.380;2022-08-18T08:50:13;22.20;73.28
62464;SHT31;48512;48.552;9.380;2022-08-18T08:52:50;22.22;74.46
62464;SHT31;48512;48.552;9.380;2022-08-18T08:55:22;22.26;74.10
62464;SHT31;48512;48.552;9.380;2022-08-18T09:00:27;22.33;74.36
62464;SHT31;48512;48.552;9.380;2022-08-18T09:03:04;22.42;73.10
62464;SHT31;48512;48.552;9.380;2022-08-18T09:05:44;22.42;72.05
62464;SHT31;48512;48.552;9.380;2022-08-18T09:16:55;23.21;69.27
62464;SHT31;48512;48.552;9.380;2022-08-18T09:24:57;23.52;67.30
62464;SHT31;48512;48.552;9.380;2022-08-18T09:27:44;23.57;66.66
62464;SHT31;48512;48.552;9.380;2022-08-18T09:38:52;24.10;66.18
62464;SHT31;48512;48.552;9.380;2022-08-18T09:42:00;24.51;65.78
62464;SHT31;48512;48.552;9.380;2022-08-18T09:47:06;24.75;63.97
62464;SHT31;48512;48.552;9.380;2022-08-18T09:49:42;24.99;63.66
62464;SHT31;48512;48.552;9.380;2022-08-18T09:57:26;25.85;60.53
62464;SHT31;48512;48.552;9.380;2022-08-18T10:15:38;26.30;58.78
62464;SHT31;48512;48.552;9.380;2022-08-18T10:23:08;26.50;59.89
62464;SHT31;48512;48.552;9.380;2022-08-18T10:28:03;26.65;58.75
62464;SHT31;48512;48.552;9.380;2022-08-18T10:32:55;27.23;57.87
62464;SHT31;48512;48.552;9.380;2022-08-18T10:40:27;28.12;54.72
62464;SHT31;48512;48.552;9.380;2022-08-18T10:43:09;28.09;54.26
62464;SHT31;48512;48.552;9.380;2022-08-18T10:45:51;28.32;54.86
62464;SHT31;48512;48.552;9.380;2022-08-18T10:48:28;27.87;56.44
62464;SHT31;48512;48.552;9.380;2022-08-18T10:51:18;28.59;55.47
62464;SHT31;48512;48.552;9.380;2022-08-18T10:54:28;28.49;54.54
62464;SHT31;48512;48.552;9.380;2022-08-18T10:57:09;28.61;54.24
62464;SHT31;48512;48.552;9.380;2022-08-18T11:00:08;28.73;55.74
62464;SHT31;48512;48.552;9.380;2022-08-18T11:02:58;29.04;53.59
62464;SHT31;48512;48.552;9.380;2022-08-18T11:05:28;29.03;53.29
62464;SHT31;48512;48.552;9.380;2022-08-18T11:07:57;28.84;53.31
62464;SHT31;48512;48.552;9.380;2022-08-18T11:10:44;29.49;51.19
62464;SHT31;48512;48.552;9.380;2022-08-18T11:18:49;30.24;50.95
62464;SHT31;48512;48.552;9.380;2022-08-18T11:24:03;30.03;49.48
62464;SHT31;48512;48.552;9.380;2022-08-18T11:26:34;30.10;50.21
62464;SHT31;48512;48.552;9.380;2022-08-18T11:29:32;30.01;50.80
62464;SHT31;48512;48.552;9.380;2022-08-18T11:32:02;30.75;48.95
62464;SHT31;48512;48.552;9.380;2022-08-18T11:34:41;31.00;48.70
62464;SHT31;48512;48.552;9.380;2022-08-18T11:37:21;30.52;50.73
62464;SHT31;48512;48.552;9.380;2022-08-18T11:39:49;30.20;51.22
62464;SHT31;48512;48.552;9.380;2022-08-18T11:42:17;30.52;49.44
62464;SHT31;48512;48.552;9.380;2022-08-18T11:44:44;30.69;49.15
62464;SHT31;48512;48.552;9.380;2022-08-18T11:47:17;30.86;48.73
62464;SHT31;48512;48.552;9.380;2022-08-18T11:50:07;30.75;49.48
62464;SHT31;48512;48.552;9.380;2022-08-18T11:52:47;29.77;50.93
62464;SHT31;48512;48.552;9.380;2022-08-18T11:55:27;30.37;50.64
62464;SHT31;48512;48.552;9.380;2022-08-18T11:57:55;29.81;50.73
62464;SHT31;48512;48.552;9.380;2022-08-18T12:03:17;30.90;49.21
62464;SHT31;48512;48.552;9.380;2022-08-18T12:05:50;30.93;49.05
62464;SHT31;48512;48.552;9.380;2022-08-18T12:08:21;31.20;48.15
62464;SHT31;48512;48.552;9.380;2022-08-18T12:10:48;30.64;49.17
62464;SHT31;48512;48.552;9.380;2022-08-18T12:13:21;30.96;48.37
62464;SHT31;48512;48.552;9.380;2022-08-18T12:15:47;30.72;48.35
62464;SHT31;48512;48.552;9.380;2022-08-18T12:18:31;31.00;48.34
62464;SHT31;48512;48.552;9.380;2022-08-18T12:20:57;30.93;48.39
62464;SHT31;48512;48.552;9.380;2022-08-18T12:23:22;30.97;47.99
62464;SHT31;48512;48.552;9.380;2022-08-18T12:25:48;31.14;47.56
62464;SHT31;48512;48.552;9.380;2022-08-18T12:28:13;30.85;47.54
62464;SHT31;48512;48.552;9.380;2022-08-18T12:30:39;30.99;47.43
62464;SHT31;48512;48.552;9.380;2022-08-18T12:33:04;31.58;46.74
62464;SHT31;48512;48.552;9.380;2022-08-18T12:35:29;32.15;45.67
62464;SHT31;48512;48.552;9.380;2022-08-18T12:37:55;32.29;45.91
62464;SHT31;48512;48.552;9.380;2022-08-18T12:40:21;32.23;45.64
62464;SHT31;48512;48.552;9.380;2022-08-18T12:42:48;31.78;46.93
62464;SHT31;48512;48.552;9.380;2022-08-18T12:45:14;31.57;47.07
62464;SHT31;48512;48.552;9.380;2022-08-18T12:47:40;31.71;47.41
62464;SHT31;48512;48.552;9.380;2022-08-18T12:50:06;31.00;46.63
62464;SHT31;48512;48.552;9.380;2022-08-18T12:52:32;30.62;47.52
62464;SHT31;48512;48.552;9.380;2022-08-18T12:54:57;29.99;48.05
62464;SHT31;48512;48.552;9.380;2022-08-18T12:57:25;30.03;48.74
62464;SHT31;48512;48.552;9.380;2022-08-18T12:59:51;30.03;48.88
62464;SHT31;48512;48.552;9.380;2022-08-18T13:02:18;29.74;50.32
62464;SHT31;48512;48.552;9.380;2022-08-18T13:04:44;30.10;49.28
62464;SHT31;48512;48.552;9.380;2022-08-18T13:07:11;30.00;50.03
62464;SHT31;48512;48.552;9.380;2022-08-18T13:09:38;29.74;50.86
62464;SHT31;48512;48.552;9.380;2022-08-18T13:12:04;29.56;50.70
62464;SHT31;48512;48.552;9.380;2022-08-18T13:14:30;29.61;50.55
62464;SHT31;48512;48.552;9.380;2022-08-18T13:16:56;29.38;50.67
62464;SHT31;48512;48.552;9.380;2022-08-18T13:19:21;28.93;51.31
62464;SHT31;48512;48.552;9.380;2022-08-18T13:21:46;29.11;51.12
62464;SHT31;48512;48.552;9.380;2022-08-18T13:24:12;29.42;50.25
62464;SHT31;48512;48.552;9.380;2022-08-18T13:26:42;29.05;51.77
62464;SHT31;48512;48.552;9.380;2022-08-18T13:29:08;29.12;51.41
62464;SHT31;48512;48.552;9.380;2022-08-18T13:31:34;28.80;51.97
62464;SHT31;48512;48.552;9.380;2022-08-18T13:34:02;29.04;51.51
62464;SHT31;48512;48.552;9.380;2022-08-18T13:36:29;29.15;51.30
62464;SHT31;48512;48.552;9.380;2022-08-18T13:39:10;28.81;52.08
62464;SHT31;48512;48.552;9.380;2022-08-18T13:41:35;28.94;52.48
62464;SHT31;48512;48.552;9.380;2022-08-18T13:44:01;28.76;51.95
62464;SHT31;48512;48.552;9.380;2022-08-18T13:46:26;28.97;51.16
62464;SHT31;48512;48.552;9.380;2022-08-18T13:48:52;29.21;49.86
62464;SHT31;48512;48.552;9.380;2022-08-18T13:51:22;29.29;50.05
62464;SHT31;48512;48.552;9.380;2022-08-18T13:53:48;29.24;50.08
62464;SHT31;48512;48.552;9.380;2022-08-18T13:56:13;29.08;50.71
62464;SHT31;48512;48.552;9.380;2022-08-18T13:58:39;29.34;50.30
62464;SHT31;48512;48.552;9.380;2022-08-18T14:01:06;29.53;50.32
62464;SHT31;48512;48.552;9.380;2022-08-18T14:03:33;29.42;51.16
62464;SHT31;48512;48.552;9.380;2022-08-18T14:06:00;29.07;50.33
62464;SHT31;48512;48.552;9.380;2022-08-18T14:08:28;29.04;50.47
62464;SHT31;48512;48.552;9.380;2022-08-18T14:10:57;29.12;49.97
62464;SHT31;48512;48.552;9.380;2022-08-18T14:13:22;29.16;50.14
62464;SHT31;48512;48.552;9.380;2022-08-18T14:15:50;29.25;50.08
62464;SHT31;48512;48.552;9.380;2022-08-18T14:18:15;30.28;49.07
62464;SHT31;48512;48.552;9.380;2022-08-18T14:20:41;30.64;47.42
62464;SHT31;48512;48.552;9.380;2022-08-18T14:23:25;30.38;47.64
62464;SHT31;48512;48.552;9.380;2022-08-18T14:26:09;30.47;47.37
62464;SHT31;48512;48.552;9.380;2022-08-18T14:28:53;30.38;47.66
62464;SHT31;48512;48.552;9.380;2022-08-18T14:31:19;29.80;48.35
62464;SHT31;48512;48.552;9.380;2022-08-18T14:33:45;30.03;47.72
62464;SHT31;48512;48.552;9.380;2022-08-18T14:36:12;30.01;47.81
62464;SHT31;48512;48.552;9.380;2022-08-18T14:38:38;30.51;46.69
62464;SHT31;48512;48.552;9.380;2022-08-18T14:41:06;30.52;47.23
62464;SHT31;48512;48.552;9.380;2022-08-18T14:43:32;30.61;47.13
62464;SHT31;48512;48.552;9.380;2022-08-18T14:46:03;30.51;47.02
62464;SHT31;48512;48.552;9.380;2022-08-18T14:48:30;30.45;47.64
62464;SHT31;48512;48.552;9.380;2022-08-18T14:50:57;30.31;47.61
62464;SHT31;48512;48.552;9.380;2022-08-18T14:53:26;30.24;47.19
62464;SHT31;48512;48.552;9.380;2022-08-18T14:55:53;30.28;47.11
62464;SHT31;48512;48.552;9.380;2022-08-18T14:58:20;30.07;47.54
62464;SHT31;48512;48.552;9.380;2022-08-18T15:00:48;29.59;48.78
62464;SHT31;48512;48.552;9.380;2022-08-18T15:03:13;29.73;48.82
62464;SHT31;48512;48.552;9.380;2022-08-18T15:05:39;29.55;48.91
62464;SHT31;48512;48.552;9.380;2022-08-18T15:08:04;29.43;49.68
62464;SHT31;48512;48.552;9.380;2022-08-18T15:10:31;29.48;48.62
62464;SHT31;48512;48.552;9.380;2022-08-18T15:12:57;29.51;50.15
62464;SHT31;48512;48.552;9.380;2022-08-18T15:15:23;29.53;50.04
62464;SHT31;48512;48.552;9.380;2022-08-18T15:17:50;29.61;48.90
62464;SHT31;48512;48.552;9.380;2022-08-18T15:20:16;29.49;49.65
62464;SHT31;48512;48.552;9.380;2022-08-18T15:22:43;29.46;50.07
62464;SHT31;48512;48.552;9.380;2022-08-18T15:25:27;29.41;50.01
62464;SHT31;48512;48.552;9.380;2022-08-18T15:28:15;29.48;49.48
62464;SHT31;48512;48.552;9.380;2022-08-18T15:30:43;29.26;49.84
62464;SHT31;48512;48.552;9.380;2022-08-18T15:33:08;29.58;49.24
62464;SHT31;48512;48.552;9.380;2022-08-18T15:35:35;29.67;49.14
62464;SHT31;48512;48.552;9.380;2022-08-18T15:38:01;29.72;48.44
62464;SHT31;48512;48.552;9.380;2022-08-18T15:40:27;29.74;48.39
62464;SHT31;48512;48.552;9.380;2022-08-18T15:42:56;29.58;48.45
62464;SHT31;48512;48.552;9.380;2022-08-18T15:45:24;29.62;48.59
62464;SHT31;48512;48.552;9.380;2022-08-18T15:47:52;29.65;49.35
62464;SHT31;48512;48.552;9.380;2022-08-18T15:50:18;29.59;49.64
62464;SHT31;48512;48.552;9.380;2022-08-18T15:52:55;29.65;49.03
62464;SHT31;48512;48.552;9.380;2022-08-18T15:55:24;29.61;48.62
62464;SHT31;48512;48.552;9.380;2022-08-18T15:57:50;29.52;48.77
62464;SHT31;48512;48.552;9.380;2022-08-18T16:00:17;29.46;48.80
62464;SHT31;48512;48.552;9.380;2022-08-18T16:02:49;28.98;50.28
62464;SHT31;48512;48.552;9.380;2022-08-18T16:05:16;29.18;50.25
62464;SHT31;48512;48.552;9.380;2022-08-18T16:07:42;28.95;50.96
62464;SHT31;48512;48.552;9.380;2022-08-18T16:10:10;28.88;50.73
62464;SHT31;48512;48.552;9.380;2022-08-18T16:12:35;28.95;50.57
62464;SHT31;48512;48.552;9.380;2022-08-18T16:15:01;28.70;50.77
62464;SHT31;48512;48.552;9.380;2022-08-18T16:17:29;28.81;50.37
62464;SHT31;48512;48.552;9.380;2022-08-18T16:19:56;28.61;51.02
62464;SHT31;48512;48.552;9.380;2022-08-18T16:22:21;28.66;51.07
62464;SHT31;48512;48.552;9.380;2022-08-18T16:24:47;28.57;51.16
62464;SHT31;48512;48.552;9.380;2022-08-18T16:27:14;28.60;51.22
62464;SHT31;48512;48.552;9.380;2022-08-18T16:29:40;28.57;51.23
62464;SHT31;48512;48.552;9.380;2022-08-18T16:32:06;28.42;51.61
62464;SHT31;48512;48.552;9.380;2022-08-18T16:34:31;28.29;52.36
62464;SHT31;48512;48.552;9.380;2022-08-18T16:36:57;28.09;52.11
62464;SHT31;48512;48.552;9.380;2022-08-18T16:39:22;28.28;51.84
62464;SHT31;48512;48.552;9.380;2022-08-18T16:41:50;28.02;52.79
62464;SHT31;48512;48.552;9.380;2022-08-18T16:44:16;27.95;52.83
62464;SHT31;48512;48.552;9.380;2022-08-18T16:46:41;27.91;53.03
62464;SHT31;48512;48.552;9.380;2022-08-18T16:49:08;27.65;53.93
62464;SHT31;48512;48.552;9.380;2022-08-18T16:51:34;27.51;53.53
62464;SHT31;48512;48.552;9.380;2022-08-18T16:54:00;27.58;53.45
62464;SHT31;48512;48.552;9.380;2022-08-18T16:56:28;27.46;53.44
62464;SHT31;48512;48.552;9.380;2022-08-18T16:58:54;27.54;53.58
62464;SHT31;48512;48.552;9.380;2022-08-18T17:01:38;27.40;54.15
62464;SHT31;48512;48.552;9.380;2022-08-18T17:04:25;27.39;54.51
62464;SHT31;48512;48.552;9.380;2022-08-18T17:06:53;27.33;54.19
62464;SHT31;48512;48.552;9.380;2022-08-18T17:09:19;27.36;53.73
62464;SHT31;48512;48.552;9.380;2022-08-18T17:11:45;27.23;54.01
62464;SHT31;48512;48.552;9.380;2022-08-18T17:14:11;27.30;53.91
62464;SHT31;48512;48.552;9.380;2022-08-18T17:16:37;27.03;54.59
62464;SHT31;48512;48.552;9.380;2022-08-18T17:19:04;27.23;54.29
62464;SHT31;48512;48.552;9.380;2022-08-18T17:21:30;27.26;54.29
62464;SHT31;48512;48.552;9.380;2022-08-18T17:23:58;27.23;54.01
62464;SHT31;48512;48.552;9.380;2022-08-18T17:26:47;27.03;54.76
62464;SHT31;48512;48.552;9.380;2022-08-18T17:29:34;26.98;54.64
62464;SHT31;48512;48.552;9.380;2022-08-18T17:32:06;26.82;55.71
62464;SHT31;48512;48.552;9.380;2022-08-18T17:34:37;26.77;55.44
62464;SHT31;48512;48.552;9.380;2022-08-18T17:37:09;26.75;55.31
62464;SHT31;48512;48.552;9.380;2022-08-18T17:39:43;26.69;55.29
62464;SHT31;48512;48.552;9.380;2022-08-18T17:42:10;26.78;54.96
62464;SHT31;48512;48.552;9.380;2022-08-18T17:44:52;26.67;55.42
62464;SHT31;48512;48.552;9.380;2022-08-18T17:47:22;26.51;55.76
62464;SHT31;48512;48.552;9.380;2022-08-18T17:49:49;26.47;55.67
62464;SHT31;48512;48.552;9.380;2022-08-18T17:52:42;26.36;56.28
62464;SHT31;48512;48.552;9.380;2022-08-18T17:55:19;26.31;55.75
62464;SHT31;48512;48.552;9.380;2022-08-18T17:57:53;26.02;56.15
62464;SHT31;48512;48.552;9.380;2022-08-18T18:00:21;25.88;56.55